Time;durP1;ratioP1;P1;durP2;ratioP2;P2;SDS_P1;SDS_P2;PMS_P1;PMS_P2;Temp;Humidity;BMP_temperature;BMP_pressure;BME280_temperature;BME280_humidity;BME280_pressure;Samples;Min_cycle;Max_cycle;Signal;HPM_P1;HPM_P2
2024/01/23 00:01:03;;;;;;;0.40;0.30;;;5.00;99.90;;;;;;5075680;28;20961;-79
2024/01/23 00:03:33;;;;;;;0.97;0.97;;;5.10;99.90;;;;;;5076127;28;20449;-78
2024/01/23 00:05:59;;;;;;;0.40;0.30;;;5.10;99.90;;;;;;5075732;28;20804;-78
2024/01/23 00:08:26;;;;;;;0.30;0.30;;;5.10;99.90;;;;;;5075955;28;20473;-79
2024/01/23 00:10:53;;;;;;;0.30;0.20;;;5.10;99.90;;;;;;5075898;28;20471;-78
2024/01/23 00:13:19;;;;;;;0.30;0.30;;;5.00;99.90;;;;;;5076286;28;20441;-78
2024/01/23 00:15:46;;;;;;;0.30;0.30;;;5.10;99.90;;;;;;5076160;28;20452;-78
2024/01/23 00:18:13;;;;;;;0.40;0.30;;;5.10;99.90;;;;;;5074023;28;20484;-78
2024/01/23 00:20:41;;;;;;;0.30;0.30;;;5.10;99.90;;;;;;5075494;28;20452;-78
2024/01/23 00:23:08;;;;;;;0.30;0.30;;;5.10;99.90;;;;;;5083809;28;20441;-78
2024/01/23 00:25:33;;;;;;;0.30;0.30;;;5.00;99.90;;;;;;5075533;28;20451;-78
2024/01/23 00:28:00;;;;;;;0.30;0.30;;;5.00;99.90;;;;;;5075071;28;20444;-78
2024/01/23 00:30:27;;;;;;;0.30;0.30;;;4.90;99.90;;;;;;5074630;28;20229;-78
2024/01/23 00:32:53;;;;;;;0.30;0.30;;;4.80;99.90;;;;;;5075069;28;20455;-77
2024/01/23 00:35:19;;;;;;;2.67;0.77;;;4.70;99.90;;;;;;5074451;28;20445;-78
2024/01/23 00:37:47;;;;;;;4.30;1.23;;;4.70;99.90;;;;;;5074434;28;20209;-78
2024/01/23 00:40:14;;;;;;;0.70;0.70;;;4.80;99.90;;;;;;5074495;28;20461;-78
2024/01/23 00:42:41;;;;;;;0.30;0.20;;;4.80;99.90;;;;;;5074710;28;20977;-78
2024/01/23 00:45:08;;;;;;;0.30;0.30;;;4.80;99.90;;;;;;5074832;28;20436;-78
2024/01/23 00:47:34;;;;;;;0.93;0.50;;;4.70;99.90;;;;;;5074335;28;20451;-78
2024/01/23 00:50:01;;;;;;;0.30;0.30;;;4.70;99.90;;;;;;5075305;28;20493;-78
2024/01/23 00:52:28;;;;;;;1.17;0.40;;;4.70;99.90;;;;;;5074798;28;20445;-78
2024/01/23 00:55:02;;;;;;;0.30;0.20;;;4.70;99.90;;;;;;5075309;28;20440;-78
2024/01/23 00:57:28;;;;;;;0.40;0.40;;;4.70;99.90;;;;;;5074354;28;20899;-78
2024/01/23 00:59:55;;;;;;;0.30;0.30;;;4.70;99.90;;;;;;5074705;28;20477;-78
2024/01/23 01:02:22;;;;;;;0.30;0.20;;;4.70;99.90;;;;;;5074220;28;20946;-78
2024/01/23 01:04:49;;;;;;;0.30;0.30;;;4.70;99.90;;;;;;5074798;28;20452;-78
2024/01/23 01:07:16;;;;;;;0.30;0.30;;;4.70;99.90;;;;;;5074138;28;20956;-78
2024/01/23 01:09:42;;;;;;;0.30;0.23;;;4.70;99.90;;;;;;5073827;28;20459;-78
2024/01/23 01:12:10;;;;;;;1.63;0.67;;;4.80;99.90;;;;;;5074392;28;20922;-78
2024/01/23 01:14:37;;;;;;;0.30;0.30;;;4.80;99.90;;;;;;5074133;28;20461;-79
2024/01/23 01:17:04;;;;;;;0.40;0.37;;;4.80;99.90;;;;;;5074049;28;20551;-79
2024/01/23 01:19:31;;;;;;;0.30;0.30;;;4.90;99.90;;;;;;5073835;28;20492;-79
2024/01/23 01:21:58;;;;;;;0.30;0.20;;;4.90;99.90;;;;;;5074215;28;20520;-79
2024/01/23 01:24:25;;;;;;;0.40;0.40;;;4.90;99.90;;;;;;5073853;28;20437;-79
2024/01/23 01:26:52;;;;;;;2.10;0.97;;;4.90;99.90;;;;;;5074115;28;20437;-79
2024/01/23 01:29:20;;;;;;;0.30;0.30;;;4.90;99.90;;;;;;5078146;28;20464;-80
2024/01/23 01:31:46;;;;;;;0.30;0.30;;;4.80;99.90;;;;;;5080720;28;20451;-80
2024/01/23 01:34:13;;;;;;;0.30;0.20;;;4.80;99.90;;;;;;5079834;28;20445;-80
2024/01/23 01:36:40;;;;;;;5.80;0.40;;;4.70;99.90;;;;;;5079559;28;20445;-80
2024/01/23 01:39:07;;;;;;;0.37;0.30;;;4.70;99.90;;;;;;5079737;28;20484;-80
2024/01/23 01:41:33;;;;;;;0.30;0.23;;;4.70;99.90;;;;;;5079852;28;20505;-80
2024/01/23 01:44:00;;;;;;;0.47;0.47;;;4.60;99.90;;;;;;5078254;28;20448;-80
2024/01/23 01:46:28;;;;;;;0.30;0.20;;;4.60;99.90;;;;;;5077858;28;20445;-80
2024/01/23 01:48:55;;;;;;;0.30;0.30;;;4.50;99.90;;;;;;5078068;28;20544;-80
2024/01/23 01:51:24;;;;;;;0.30;0.20;;;4.50;99.90;;;;;;5077943;28;20925;-80
2024/01/23 01:53:52;;;;;;;0.60;0.40;;;4.50;99.90;;;;;;5077318;28;20441;-80
2024/01/23 01:56:20;;;;;;;0.30;0.30;;;4.50;99.90;;;;;;5077391;28;20969;-80
2024/01/23 01:58:47;;;;;;;0.40;0.30;;;4.50;99.90;;;;;;5077128;28;20500;-80
2024/01/23 02:01:15;;;;;;;0.30;0.20;;;4.50;99.90;;;;;;5077723;28;20444;-80
2024/01/23 02:03:43;;;;;;;0.30;0.30;;;4.50;99.90;;;;;;5081050;28;20808;-80
2024/01/23 02:06:11;;;;;;;0.40;0.30;;;4.50;99.90;;;;;;5080873;28;20456;-80
2024/01/23 02:08:38;;;;;;;0.30;0.30;;;4.60;99.90;;;;;;5077463;28;20492;-80
2024/01/23 02:11:05;;;;;;;0.30;0.20;;;4.60;99.90;;;;;;5077980;28;20456;-79
2024/01/23 02:13:32;;;;;;;0.30;0.30;;;4.60;99.90;;;;;;5081225;28;20449;-80
2024/01/23 02:15:58;;;;;;;3.13;0.60;;;4.60;99.90;;;;;;5078489;28;20433;-80
2024/01/23 02:18:25;;;;;;;0.47;0.47;;;4.50;99.90;;;;;;5077736;28;20455;-79
2024/01/23 02:20:53;;;;;;;0.40;0.40;;;4.50;99.90;;;;;;5078219;28;20444;-80
2024/01/23 02:23:20;;;;;;;0.97;0.40;;;4.40;99.90;;;;;;5078095;28;20456;-79
2024/01/23 02:25:48;;;;;;;0.50;0.50;;;4.40;99.90;;;;;;5077805;28;20445;-79
2024/01/23 02:28:16;;;;;;;0.30;0.30;;;4.40;99.90;;;;;;5078693;28;20809;-79
2024/01/23 02:30:42;;;;;;;0.30;0.30;;;4.50;99.90;;;;;;5077338;28;20440;-79
2024/01/23 02:33:09;;;;;;;2.43;0.50;;;4.40;99.90;;;;;;5077157;28;20448;-79
2024/01/23 02:35:36;;;;;;;0.40;0.40;;;4.40;99.90;;;;;;5077304;28;20453;-79
2024/01/23 02:38:03;;;;;;;0.67;0.40;;;4.40;99.90;;;;;;5085986;28;20504;-79
2024/01/23 02:40:29;;;;;;;0.47;0.40;;;4.30;99.90;;;;;;5074849;28;20488;-79
2024/01/23 02:42:57;;;;;;;2.77;0.30;;;4.40;99.90;;;;;;5076030;28;20445;-79
2024/01/23 02:45:24;;;;;;;0.63;0.63;;;4.40;99.90;;;;;;5076333;28;20460;-79
2024/01/23 02:47:51;;;;;;;0.30;0.20;;;4.40;99.90;;;;;;5076370;28;20444;-79
2024/01/23 02:50:18;;;;;;;1.37;0.47;;;4.40;99.90;;;;;;5082563;28;20977;-79
2024/01/23 02:52:44;;;;;;;0.40;0.30;;;4.50;99.90;;;;;;5088290;28;20454;-79
2024/01/23 02:55:11;;;;;;;0.30;0.30;;;4.50;99.90;;;;;;5090918;28;20436;-79
2024/01/23 02:57:38;;;;;;;0.30;0.30;;;4.50;99.90;;;;;;5080575;28;20456;-79
2024/01/23 03:00:09;;;;;;;0.83;0.30;;;4.60;99.90;;;;;;5076978;28;20485;-79
2024/01/23 03:02:35;;;;;;;0.40;0.33;;;4.60;99.90;;;;;;5076825;28;20441;-79
2024/01/23 03:05:02;;;;;;;0.30;0.20;;;4.50;99.90;;;;;;5075768;28;20453;-79
2024/01/23 03:07:29;;;;;;;0.63;0.63;;;4.50;99.90;;;;;;5076328;28;20968;-79
2024/01/23 03:09:56;;;;;;;1.17;1.03;;;4.60;99.90;;;;;;5076025;28;20464;-79
2024/01/23 03:12:23;;;;;;;0.30;0.30;;;4.60;99.90;;;;;;5076181;28;20535;-79
2024/01/23 03:14:51;;;;;;;3.60;0.83;;;4.60;99.90;;;;;;5075774;28;20950;-79
2024/01/23 03:17:19;;;;;;;2.33;0.97;;;4.60;99.90;;;;;;5076139;28;20448;-79
2024/01/23 03:19:46;;;;;;;0.30;0.30;;;4.60;99.90;;;;;;5077089;28;20484;-79
2024/01/23 03:22:13;;;;;;;0.30;0.20;;;4.60;99.90;;;;;;5076287;28;20441;-79
2024/01/23 03:24:41;;;;;;;1.17;0.47;;;4.60;99.90;;;;;;5076884;28;20444;-79
2024/01/23 03:27:08;;;;;;;14.90;0.87;;;4.60;99.90;;;;;;5076948;28;20445;-79
2024/01/23 03:29:41;;;;;;;2.77;0.50;;;4.60;99.90;;;;;;5077254;28;20527;-79
2024/01/23 03:32:08;;;;;;;0.30;0.30;;;4.60;99.90;;;;;;5076155;28;20460;-79
2024/01/23 03:34:37;;;;;;;0.30;0.20;;;4.70;99.90;;;;;;5077367;28;20449;-79
2024/01/23 03:37:04;;;;;;;0.30;0.20;;;4.60;99.90;;;;;;5076502;28;20451;-79
2024/01/23 03:39:31;;;;;;;1.80;0.70;;;4.70;99.90;;;;;;5076101;28;20491;-79
2024/01/23 03:41:58;;;;;;;0.30;0.30;;;4.60;99.90;;;;;;5076936;28;20445;-79
2024/01/23 03:44:25;;;;;;;1.63;0.30;;;4.60;99.90;;;;;;5075911;28;20460;-79
2024/01/23 03:46:52;;;;;;;15.93;1.00;;;4.60;99.90;;;;;;5076566;28;20444;-79
2024/01/23 03:49:19;;;;;;;1.37;0.97;;;4.60;99.90;;;;;;5076005;28;20457;-79
2024/01/23 03:51:47;;;;;;;0.40;0.30;;;4.60;99.90;;;;;;5076119;28;20448;-79
2024/01/23 03:54:14;;;;;;;0.30;0.20;;;4.60;99.90;;;;;;5076495;28;20437;-79
2024/01/23 03:56:41;;;;;;;0.30;0.20;;;4.70;99.90;;;;;;5076016;28;20520;-79
2024/01/23 03:59:07;;;;;;;0.30;0.30;;;4.70;99.90;;;;;;5075563;28;20495;-79
2024/01/23 04:01:34;;;;;;;0.30;0.30;;;4.70;99.90;;;;;;5076144;28;20452;-79
2024/01/23 04:04:02;;;;;;;0.50;0.30;;;4.70;99.90;;;;;;5075684;28;20930;-79
2024/01/23 04:06:28;;;;;;;0.30;0.20;;;4.80;99.90;;;;;;5075693;28;20811;-79
2024/01/23 04:08:56;;;;;;;0.73;0.30;;;4.80;99.90;;;;;;5075773;28;20481;-79
2024/01/23 04:11:23;;;;;;;0.30;0.27;;;4.80;99.90;;;;;;5076234;28;20437;-79
2024/01/23 04:13:50;;;;;;;0.70;0.63;;;4.80;99.90;;;;;;5075838;28;20444;-79
2024/01/23 04:16:17;;;;;;;0.30;0.30;;;4.70;99.90;;;;;;5074954;28;20946;-79
2024/01/23 04:18:43;;;;;;;0.33;0.30;;;4.70;99.90;;;;;;5075454;28;20452;-79
2024/01/23 04:21:10;;;;;;;0.33;0.30;;;4.70;99.90;;;;;;5075100;28;20476;-79
2024/01/23 04:23:37;;;;;;;0.30;0.20;;;4.70;99.90;;;;;;5075512;28;20470;-79
2024/01/23 04:26:07;;;;;;;3.20;0.40;;;4.80;99.90;;;;;;5075290;28;20444;-79
2024/01/23 04:28:35;;;;;;;0.83;0.50;;;4.70;99.90;;;;;;5074938;28;20461;-79
2024/01/23 04:31:02;;;;;;;10.53;0.90;;;4.70;99.90;;;;;;5075106;28;20440;-79
2024/01/23 04:33:29;;;;;;;0.30;0.30;;;4.80;99.90;;;;;;5075097;28;20444;-79
2024/01/23 04:35:56;;;;;;;0.30;0.20;;;4.80;99.90;;;;;;5074968;28;20440;-79
2024/01/23 04:38:23;;;;;;;0.40;0.30;;;4.90;99.90;;;;;;5075830;28;20451;-79
2024/01/23 04:40:49;;;;;;;0.50;0.50;;;4.90;99.90;;;;;;5074941;28;20550;-79
2024/01/23 04:43:18;;;;;;;0.30;0.30;;;4.90;99.90;;;;;;5074825;28;20807;-79
2024/01/23 04:45:44;;;;;;;0.60;0.60;;;4.90;99.90;;;;;;5074865;28;20445;-79
2024/01/23 04:48:11;;;;;;;1.23;0.40;;;4.90;99.90;;;;;;5074567;28;20437;-79
2024/01/23 04:50:38;;;;;;;0.37;0.37;;;4.90;99.90;;;;;;5074205;28;20953;-79
2024/01/23 04:53:03;;;;;;;4.37;0.90;;;4.90;99.90;;;;;;5074478;28;20441;-79
2024/01/23 04:55:30;;;;;;;2.87;0.57;;;4.90;99.90;;;;;;5074486;28;20451;-80
2024/01/23 04:57:57;;;;;;;0.80;0.50;;;4.90;99.90;;;;;;5079081;28;20210;-80
2024/01/23 05:00:25;;;;;;;0.30;0.20;;;4.90;99.90;;;;;;5074993;28;20488;-79
2024/01/23 05:02:51;;;;;;;0.90;0.37;;;4.90;99.90;;;;;;5074953;28;20813;-80
2024/01/23 05:05:18;;;;;;;10.00;0.60;;;4.90;99.90;;;;;;5078509;28;20437;-80
2024/01/23 05:07:45;;;;;;;0.40;0.40;;;4.80;99.90;;;;;;5078447;28;20846;-80
2024/01/23 05:10:12;;;;;;;1.70;0.73;;;4.80;99.90;;;;;;5078229;28;20996;-80
2024/01/23 05:12:39;;;;;;;0.77;0.30;;;4.70;99.90;;;;;;5078143;28;21010;-80
2024/01/23 05:15:07;;;;;;;21.27;0.97;;;4.70;99.90;;;;;;5078805;28;20478;-80
2024/01/23 05:17:35;;;;;;;1.60;0.50;;;4.70;99.90;;;;;;5078718;28;20487;-80
2024/01/23 05:20:04;;;;;;;0.40;0.40;;;4.70;99.90;;;;;;5078878;28;20495;-80
2024/01/23 05:22:31;;;;;;;0.30;0.20;;;4.70;99.90;;;;;;5078861;28;20449;-80
2024/01/23 05:24:57;;;;;;;4.07;0.40;;;4.70;99.90;;;;;;5078429;28;20447;-80
2024/01/23 05:27:24;;;;;;;0.40;0.33;;;4.60;99.90;;;;;;5078713;28;20452;-80
2024/01/23 05:29:51;;;;;;;0.30;0.30;;;4.60;99.90;;;;;;5078623;28;20457;-80
2024/01/23 05:32:18;;;;;;;0.30;0.20;;;4.60;99.90;;;;;;5079718;28;20494;-80
2024/01/23 05:34:46;;;;;;;0.30;0.20;;;4.60;99.90;;;;;;5078440;28;20445;-80
2024/01/23 05:37:13;;;;;;;0.30;0.20;;;4.60;99.90;;;;;;5078974;28;20425;-80
2024/01/23 05:39:40;;;;;;;0.30;0.20;;;4.50;99.90;;;;;;5078018;28;20854;-80
2024/01/23 05:42:06;;;;;;;0.30;0.20;;;4.40;99.90;;;;;;5078919;28;20448;-80
2024/01/23 05:44:33;;;;;;;0.30;0.30;;;4.40;99.90;;;;;;5078407;28;20437;-80
2024/01/23 05:47:00;;;;;;;0.30;0.20;;;4.40;99.90;;;;;;5078296;28;20934;-80
2024/01/23 05:49:27;;;;;;;0.30;0.20;;;4.30;99.90;;;;;;5078195;28;20476;-80
2024/01/23 05:51:55;;;;;;;0.30;0.20;;;4.20;99.90;;;;;;5078224;28;20452;-80
2024/01/23 05:54:21;;;;;;;0.30;0.20;;;4.20;99.90;;;;;;5077842;28;20445;-80
2024/01/23 05:56:48;;;;;;;0.30;0.30;;;4.20;99.90;;;;;;5077426;28;20441;-80
2024/01/23 05:59:15;;;;;;;0.30;0.30;;;4.20;99.90;;;;;;5077314;28;20457;-80
2024/01/23 06:01:42;;;;;;;0.30;0.20;;;4.10;99.90;;;;;;5077048;28;20480;-80
2024/01/23 06:04:09;;;;;;;0.30;0.20;;;4.20;99.90;;;;;;5077230;28;20452;-80
2024/01/23 06:06:40;;;;;;;0.30;0.30;;;4.20;99.90;;;;;;5077254;28;20455;-80
2024/01/23 06:09:09;;;;;;;3.43;0.40;;;4.20;99.90;;;;;;5077284;28;20972;-79
2024/01/23 06:11:35;;;;;;;0.30;0.20;;;4.10;99.90;;;;;;5076703;28;20931;-80
2024/01/23 06:14:03;;;;;;;0.30;0.30;;;4.10;99.90;;;;;;5076783;28;20441;-79
2024/01/23 06:16:29;;;;;;;0.63;0.50;;;4.10;99.90;;;;;;5076494;28;20474;-80
2024/01/23 06:18:56;;;;;;;0.30;0.30;;;4.10;99.90;;;;;;5076841;28;20465;-80
2024/01/23 06:21:23;;;;;;;0.30;0.20;;;4.00;99.90;;;;;;5077275;28;20485;-80
2024/01/23 06:23:50;;;;;;;0.30;0.20;;;4.00;99.90;;;;;;5076814;28;20460;-80
2024/01/23 06:26:18;;;;;;;0.30;0.20;;;4.00;99.90;;;;;;5076525;28;20441;-80
2024/01/23 06:28:45;;;;;;;0.30;0.30;;;3.90;99.90;;;;;;5081417;28;20465;-80
2024/01/23 06:31:12;;;;;;;2.20;0.40;;;3.90;99.90;;;;;;5091352;28;20433;-80
2024/01/23 06:33:39;;;;;;;0.30;0.20;;;3.90;99.90;;;;;;5092294;28;20441;-80
2024/01/23 06:36:06;;;;;;;0.40;0.30;;;3.80;99.90;;;;;;5082196;28;20942;-80
2024/01/23 06:38:34;;;;;;;0.30;0.27;;;3.80;99.90;;;;;;5078060;28;20511;-80
2024/01/23 06:41:00;;;;;;;0.30;0.20;;;3.70;99.90;;;;;;5077582;28;20553;-80
2024/01/23 06:43:28;;;;;;;0.30;0.30;;;3.70;99.90;;;;;;5077295;28;20452;-80
2024/01/23 06:45:56;;;;;;;0.30;0.20;;;3.60;99.90;;;;;;5077216;28;20448;-80
2024/01/23 06:48:22;;;;;;;0.30;0.20;;;3.60;99.90;;;;;;5077291;28;20449;-81
2024/01/23 06:50:49;;;;;;;0.30;0.20;;;3.60;99.90;;;;;;5077035;28;20429;-80
2024/01/23 06:53:16;;;;;;;0.30;0.30;;;3.50;99.90;;;;;;5077159;28;20828;-80
2024/01/23 06:55:43;;;;;;;1.37;0.70;;;3.50;99.90;;;;;;5076536;28;20449;-80
2024/01/23 06:58:09;;;;;;;0.30;0.20;;;3.50;99.90;;;;;;5076325;28;20444;-80
2024/01/23 07:00:37;;;;;;;0.30;0.20;;;3.50;99.90;;;;;;5076336;28;20484;-80
2024/01/23 07:03:05;;;;;;;0.30;0.20;;;3.40;99.90;;;;;;5076284;28;20445;-80
2024/01/23 07:05:32;;;;;;;0.30;0.30;;;3.40;99.90;;;;;;5076466;28;20445;-80
2024/01/23 07:07:59;;;;;;;0.60;0.40;;;3.40;99.90;;;;;;5075983;28;20468;-80
2024/01/23 07:10:26;;;;;;;0.30;0.20;;;3.50;99.90;;;;;;5076368;28;20842;-80
2024/01/23 07:12:52;;;;;;;0.60;0.30;;;3.50;99.90;;;;;;5080060;28;21008;-80
2024/01/23 07:15:19;;;;;;;0.40;0.40;;;3.50;99.90;;;;;;5075885;28;20441;-80
2024/01/23 07:17:47;;;;;;;0.30;0.20;;;3.60;99.90;;;;;;5075960;28;20455;-80
2024/01/23 07:20:14;;;;;;;0.30;0.30;;;3.60;99.90;;;;;;5075696;28;20485;-80
2024/01/23 07:22:41;;;;;;;0.40;0.40;;;3.60;99.90;;;;;;5076092;28;20441;-80
2024/01/23 07:25:09;;;;;;;0.40;0.30;;;3.50;99.90;;;;;;5075628;28;20441;-80
2024/01/23 07:27:35;;;;;;;0.30;0.20;;;3.50;99.90;;;;;;5075696;28;20970;-80
2024/01/23 07:30:02;;;;;;;0.30;0.20;;;3.50;99.90;;;;;;5076335;28;20473;-79
2024/01/23 07:32:29;;;;;;;0.30;0.30;;;3.50;99.90;;;;;;5076309;28;20809;-80
2024/01/23 07:34:57;;;;;;;0.40;0.30;;;3.40;99.90;;;;;;5076379;28;20456;-80
2024/01/23 07:37:24;;;;;;;0.30;0.30;;;3.40;99.90;;;;;;5076908;28;20448;-80
2024/01/23 07:39:51;;;;;;;0.30;0.30;;;3.50;99.90;;;;;;5076055;28;20473;-80
2024/01/23 07:42:18;;;;;;;0.30;0.20;;;3.50;99.90;;;;;;5076331;28;20910;-80
2024/01/23 07:44:46;;;;;;;0.30;0.30;;;3.50;99.90;;;;;;5076161;28;20441;-80
2024/01/23 07:47:13;;;;;;;0.30;0.30;;;3.60;99.90;;;;;;5076250;28;20441;-80
2024/01/23 07:49:40;;;;;;;0.57;0.57;;;3.60;99.90;;;;;;5076028;28;20833;-80
2024/01/23 07:52:09;;;;;;;0.30;0.30;;;3.70;99.90;;;;;;5076042;28;20437;-80
2024/01/23 07:54:35;;;;;;;0.30;0.20;;;3.80;99.90;;;;;;5076612;28;20445;-80
2024/01/23 07:57:02;;;;;;;0.30;0.27;;;3.70;99.90;;;;;;5076654;28;20425;-80
2024/01/23 07:59:29;;;;;;;0.30;0.30;;;3.70;99.90;;;;;;5076208;28;20459;-80
2024/01/23 08:01:56;;;;;;;6.73;0.80;;;3.80;99.90;;;;;;5076346;28;20491;-80
2024/01/23 08:04:22;;;;;;;0.40;0.30;;;3.90;99.90;;;;;;5076762;28;20451;-80
2024/01/23 08:06:49;;;;;;;0.40;0.30;;;3.90;99.90;;;;;;5076342;28;20445;-80
2024/01/23 08:09:19;;;;;;;0.40;0.40;;;4.00;99.90;;;;;;5075650;28;20476;-80
2024/01/23 08:11:46;;;;;;;0.40;0.30;;;4.10;99.90;;;;;;5075781;28;20437;-80
2024/01/23 08:14:12;;;;;;;0.30;0.20;;;4.10;99.90;;;;;;5075557;28;20930;-80
2024/01/23 08:16:43;;;;;;;0.30;0.30;;;4.10;99.90;;;;;;5075294;28;20438;-80
2024/01/23 08:19:10;;;;;;;0.30;0.20;;;4.20;99.90;;;;;;5075144;28;20974;-80
2024/01/23 08:21:37;;;;;;;1.07;0.37;;;4.20;99.90;;;;;;5075143;28;20488;-79
2024/01/23 08:24:04;;;;;;;0.30;0.20;;;4.30;99.90;;;;;;5074921;28;20907;-80
2024/01/23 08:26:33;;;;;;;3.80;0.30;;;4.40;99.90;;;;;;5075255;28;20444;-79
2024/01/23 08:29:00;;;;;;;0.40;0.40;;;4.40;99.90;;;;;;5074905;28;20469;-80
2024/01/23 08:31:26;;;;;;;7.30;0.60;;;4.40;99.90;;;;;;5074689;28;20437;-79
2024/01/23 08:33:53;;;;;;;0.30;0.30;;;4.30;99.90;;;;;;5074697;28;20448;-79
2024/01/23 08:36:20;;;;;;;0.30;0.20;;;4.30;99.90;;;;;;5075068;28;20484;-79
2024/01/23 08:38:47;;;;;;;0.30;0.20;;;4.30;99.90;;;;;;5073845;28;20469;-79
2024/01/23 08:41:14;;;;;;;0.50;0.30;;;4.30;99.90;;;;;;5074925;28;20491;-79
2024/01/23 08:43:42;;;;;;;0.30;0.30;;;4.30;99.90;;;;;;5075278;28;20805;-79
2024/01/23 08:46:09;;;;;;;1.80;0.50;;;4.40;99.90;;;;;;5075580;28;20440;-79
2024/01/23 08:48:36;;;;;;;0.30;0.27;;;4.50;99.90;;;;;;5077644;28;21040;-79
2024/01/23 08:51:04;;;;;;;0.30;0.30;;;4.60;99.90;;;;;;5075353;28;20441;-79
2024/01/23 08:53:31;;;;;;;0.50;0.50;;;4.80;99.90;;;;;;5075089;28;20451;-79
2024/01/23 08:55:58;;;;;;;0.37;0.30;;;4.90;99.90;;;;;;5074855;28;20536;-79
2024/01/23 08:58:25;;;;;;;0.37;0.30;;;5.10;99.90;;;;;;5075019;28;20448;-79
2024/01/23 09:00:53;;;;;;;0.60;0.60;;;5.20;99.90;;;;;;5075079;28;20484;-79
2024/01/23 09:03:19;;;;;;;0.50;0.40;;;5.30;99.90;;;;;;5075138;28;20447;-79
2024/01/23 09:05:46;;;;;;;0.30;0.30;;;5.50;99.90;;;;;;5074996;28;20445;-79
2024/01/23 09:08:13;;;;;;;0.30;0.30;;;5.90;99.90;;;;;;5074977;28;20477;-79
2024/01/23 09:10:40;;;;;;;0.67;0.50;;;6.20;99.90;;;;;;5075061;28;20437;-81
2024/01/23 09:13:06;;;;;;;0.30;0.30;;;6.40;99.90;;;;;;5076160;28;20448;-80
2024/01/23 09:15:33;;;;;;;0.30;0.30;;;6.40;99.90;;;;;;5076095;28;20455;-80
2024/01/23 09:18:01;;;;;;;0.40;0.40;;;6.40;99.90;;;;;;5075994;28;20477;-80
2024/01/23 09:20:30;;;;;;;0.30;0.20;;;6.60;99.90;;;;;;5075515;28;20467;-80
2024/01/23 09:22:56;;;;;;;0.40;0.30;;;7.20;99.90;;;;;;5075151;28;20838;-80
2024/01/23 09:25:23;;;;;;;0.50;0.43;;;7.50;99.90;;;;;;5075635;28;20441;-80
2024/01/23 09:27:50;;;;;;;0.60;0.40;;;7.50;99.90;;;;;;5075539;28;20810;-80
2024/01/23 09:30:18;;;;;;;1.80;0.50;;;7.50;99.90;;;;;;5079445;28;20468;-80
2024/01/23 09:32:44;;;;;;;0.40;0.30;;;7.40;99.90;;;;;;5075520;28;20808;-80
2024/01/23 09:35:13;;;;;;;0.30;0.20;;;7.20;99.90;;;;;;5075897;28;20514;-80
2024/01/23 09:37:40;;;;;;;0.30;0.20;;;6.90;99.90;;;;;;5074985;28;20441;-80
2024/01/23 09:40:09;;;;;;;0.30;0.30;;;6.70;99.90;;;;;;5074936;28;20469;-80
2024/01/23 09:42:38;;;;;;;0.90;0.47;;;6.50;99.90;;;;;;5074848;28;20495;-80
2024/01/23 09:45:12;;;;;;;0.40;0.40;;;6.30;99.90;;;;;;5075735;28;20444;-80
2024/01/23 09:47:39;;;;;;;1.90;0.97;;;6.20;99.90;;;;;;5075415;28;20776;-80
2024/01/23 09:50:10;;;;;;;0.40;0.37;;;6.20;99.90;;;;;;5077937;28;20471;-80
2024/01/23 09:52:39;;;;;;;0.30;0.30;;;6.10;99.90;;;;;;5078450;28;20788;-80
2024/01/23 09:55:07;;;;;;;0.70;0.40;;;6.10;99.90;;;;;;5078555;28;20437;-80
2024/01/23 09:57:34;;;;;;;0.83;0.70;;;6.10;99.90;;;;;;5078762;28;20441;-80
2024/01/23 10:00:01;;;;;;;7.17;0.70;;;6.00;99.90;;;;;;5078058;28;20453;-80
2024/01/23 10:02:30;;;;;;;0.30;0.30;;;6.10;99.90;;;;;;5080932;28;20472;-79
2024/01/23 10:04:58;;;;;;;0.40;0.40;;;6.10;99.90;;;;;;5083125;28;20441;-80
2024/01/23 10:07:26;;;;;;;0.70;0.30;;;6.20;99.90;;;;;;5083940;28;20457;-80
2024/01/23 10:09:59;;;;;;;0.50;0.50;;;6.20;99.90;;;;;;5079496;28;20469;-80
2024/01/23 10:12:26;;;;;;;0.60;0.30;;;6.20;99.90;;;;;;5078791;28;20425;-80
2024/01/23 10:14:52;;;;;;;6.73;0.70;;;6.30;99.90;;;;;;5078683;28;20449;-80
2024/01/23 10:17:19;;;;;;;2.30;0.93;;;6.20;99.90;;;;;;5078977;28;20448;-80
2024/01/23 10:19:46;;;;;;;3.30;0.37;;;6.10;99.90;;;;;;5078622;28;20826;-79
2024/01/23 10:22:14;;;;;;;0.30;0.30;;;6.00;99.90;;;;;;5079697;28;20480;-80
2024/01/23 10:24:41;;;;;;;0.50;0.30;;;5.90;99.90;;;;;;5079561;28;20449;-80
2024/01/23 10:27:09;;;;;;;4.73;0.80;;;5.80;99.90;;;;;;5075655;28;20452;-80
2024/01/23 10:29:36;;;;;;;0.30;0.20;;;5.80;99.90;;;;;;5079118;28;20469;-79
2024/01/23 10:32:04;;;;;;;5.97;0.77;;;5.80;99.90;;;;;;5079227;28;20437;-79
2024/01/23 10:34:31;;;;;;;0.53;0.40;;;5.70;99.90;;;;;;5078318;28;20445;-79
2024/01/23 10:36:58;;;;;;;0.30;0.30;;;5.80;99.90;;;;;;5078344;28;20459;-79
2024/01/23 10:39:26;;;;;;;0.80;0.70;;;5.80;99.90;;;;;;5077444;28;20978;-79
2024/01/23 10:41:53;;;;;;;0.50;0.30;;;5.90;99.90;;;;;;5078309;28;20476;-79
2024/01/23 10:44:23;;;;;;;0.40;0.40;;;6.00;99.90;;;;;;5077782;28;20971;-79
2024/01/23 10:46:52;;;;;;;0.30;0.30;;;6.10;99.90;;;;;;5078712;28;20759;-79
2024/01/23 10:49:19;;;;;;;0.30;0.30;;;6.20;99.90;;;;;;5077324;28;20559;-79
2024/01/23 10:51:49;;;;;;;0.30;0.30;;;6.30;99.90;;;;;;5077795;28;20790;-79
2024/01/23 10:54:24;;;;;;;0.40;0.30;;;6.40;99.90;;;;;;5077950;28;20437;-79
2024/01/23 10:56:55;;;;;;;1.20;0.50;;;6.60;99.90;;;;;;5078084;28;20459;-79
2024/01/23 10:59:27;;;;;;;0.30;0.30;;;6.70;99.90;;;;;;5077477;28;20464;-79
2024/01/23 11:02:02;;;;;;;0.30;0.30;;;6.80;99.90;;;;;;5076674;28;20469;-79
2024/01/23 11:04:29;;;;;;;0.70;0.40;;;6.80;99.90;;;;;;5077837;28;20440;-79
2024/01/23 11:07:00;;;;;;;1.90;0.50;;;6.90;99.90;;;;;;5077391;28;20448;-79
2024/01/23 11:09:35;;;;;;;0.40;0.40;;;6.90;99.90;;;;;;5090851;28;20452;-79
2024/01/23 11:12:07;;;;;;;1.13;0.60;;;6.80;99.90;;;;;;5090768;28;20416;-79
2024/01/23 11:14:43;;;;;;;3.60;0.60;;;6.80;99.90;;;;;;5078201;28;20421;-82
2024/01/23 11:17:12;;;;;;;0.40;0.30;;;6.80;99.90;;;;;;5078030;28;20447;-82
2024/01/23 11:19:41;;;;;;;0.40;0.30;;;6.90;99.90;;;;;;5076851;28;20457;-81
2024/01/23 11:22:08;;;;;;;2.43;0.50;;;6.90;99.90;;;;;;5075452;28;20484;-80
2024/01/23 11:24:42;;;;;;;0.40;0.40;;;6.90;99.90;;;;;;5075697;28;20433;-79
2024/01/23 11:27:09;;;;;;;0.43;0.43;;;7.00;99.90;;;;;;5075699;28;20445;-80
2024/01/23 11:29:38;;;;;;;0.30;0.30;;;7.00;99.90;;;;;;5076336;28;20981;-80
2024/01/23 11:32:18;;;;;;;0.30;0.30;;;7.10;99.90;;;;;;5077702;28;20437;-81
2024/01/23 11:34:44;;;;;;;0.30;0.30;;;7.10;99.90;;;;;;5076537;28;20425;-81
2024/01/23 11:37:39;;;;;;;1.13;0.40;;;7.10;99.90;;;;;;5076295;28;20444;-80
2024/01/23 11:40:09;;;;;;;0.30;0.30;;;7.20;99.90;;;;;;5076712;28;20473;-83
2024/01/23 11:42:37;;;;;;;0.40;0.40;;;7.20;99.90;;;;;;5086608;28;20479;-82
2024/01/23 11:45:22;;;;;;;0.40;0.30;;;7.20;99.90;;;;;;5076168;28;20444;-80
2024/01/23 11:47:54;;;;;;;0.60;0.40;;;7.30;99.90;;;;;;5075624;28;20451;-80
2024/01/23 11:50:21;;;;;;;1.30;0.60;;;7.30;99.90;;;;;;5075502;28;20469;-80
2024/01/23 11:52:51;;;;;;;0.90;0.50;;;7.20;99.90;;;;;;5075456;28;20433;-81
2024/01/23 11:55:19;;;;;;;4.43;0.87;;;7.20;99.90;;;;;;5075390;28;20457;-80
2024/01/23 11:57:48;;;;;;;0.53;0.53;;;7.10;99.90;;;;;;5074783;28;20437;-81
2024/01/23 12:00:16;;;;;;;0.77;0.30;;;7.00;99.90;;;;;;5075538;28;20460;-80
2024/01/23 12:02:45;;;;;;;0.30;0.30;;;6.90;99.90;;;;;;5076559;28;20472;-81
2024/01/23 12:05:12;;;;;;;0.60;0.60;;;6.90;99.90;;;;;;5077248;28;20460;-80
2024/01/23 12:07:40;;;;;;;1.43;0.33;;;6.90;99.90;;;;;;5076801;28;20492;-81
2024/01/23 12:10:08;;;;;;;0.53;0.53;;;6.90;99.90;;;;;;5076620;28;20487;-81
2024/01/23 12:12:35;;;;;;;0.77;0.30;;;6.90;99.90;;;;;;5075685;28;20456;-81
2024/01/23 12:15:04;;;;;;;0.47;0.47;;;7.00;99.90;;;;;;5075976;28;20449;-81
2024/01/23 12:17:31;;;;;;;1.37;0.50;;;7.00;99.90;;;;;;5076619;28;20456;-81
2024/01/23 12:20:04;;;;;;;0.40;0.30;;;7.10;99.90;;;;;;5076424;28;21001;-81
2024/01/23 12:22:30;;;;;;;0.50;0.40;;;7.10;99.90;;;;;;5076192;28;21037;-81
2024/01/23 12:24:57;;;;;;;0.30;0.30;;;7.10;99.90;;;;;;5076547;28;20441;-81
2024/01/23 12:27:25;;;;;;;0.60;0.40;;;7.00;99.90;;;;;;5076098;28;20429;-81
2024/01/23 12:29:53;;;;;;;0.30;0.30;;;7.10;99.90;;;;;;5076225;28;20468;-81
2024/01/23 12:32:19;;;;;;;0.67;0.40;;;7.10;99.90;;;;;;5075955;28;20448;-81
2024/01/23 12:34:46;;;;;;;0.50;0.30;;;7.20;99.90;;;;;;5075750;28;20451;-81
2024/01/23 12:37:15;;;;;;;25.37;0.77;;;7.20;99.90;;;;;;5075501;28;20519;-81
2024/01/23 12:39:43;;;;;;;7.13;0.70;;;7.30;99.90;;;;;;5075725;28;20471;-81
2024/01/23 12:42:10;;;;;;;5.97;0.50;;;7.30;99.90;;;;;;5075933;28;20554;-81
2024/01/23 12:44:37;;;;;;;0.40;0.40;;;7.30;99.90;;;;;;5075933;28;20437;-81
2024/01/23 12:47:07;;;;;;;0.50;0.50;;;7.40;99.90;;;;;;5075786;28;20463;-81
2024/01/23 12:49:37;;;;;;;6.60;0.40;;;7.30;99.90;;;;;;5076048;28;21046;-81
2024/01/23 12:52:13;;;;;;;0.30;0.20;;;7.30;99.90;;;;;;5075772;28;20471;-81
2024/01/23 12:54:42;;;;;;;0.40;0.30;;;7.30;99.90;;;;;;5075954;28;20429;-81
2024/01/23 12:57:08;;;;;;;8.30;0.40;;;7.30;99.90;;;;;;5075838;28;20459;-81
2024/01/23 12:59:36;;;;;;;0.33;0.33;;;7.30;99.90;;;;;;5075243;28;20985;-81